Informes METAR cercanos

 

LEAL - Alicante-Elche Miguel Hernández, Alicante, ESP
Distancia desde Xert: S 327km
Actualizado: Sat, 13-Jul-2024 7:00pm CEST
Mostly Cloudy
Mostly Cloudy
 Viento desde E
Viento: E 15 km/h
Temperatura: 26°C
Punto Rocío: 22°C
Humedad: 79%
Barometro: 1011 hPa
Nubes: Mostly Cloudy
Visibilidad: 10 km
Detalle nubes: Few Clouds 335 m
Mostly Cloudy 671 m
2024/07/13 17:00 LEAL 131700Z 10008KT 070V140 9999 FEW011 BKN022 26/22 Q1011 NOSIG
LEVC - Valencia-Manises, Valencia, ESP
Distancia desde Xert: S 143km
Actualizado: Sat, 13-Jul-2024 7:00pm CEST
Mostly Cloudy
Mostly Cloudy
 Viento desde E
Viento: E 19 km/h
Temperatura: 26°C
Punto Rocío: 21°C
Humedad: 74%
Barometro: 1011 hPa
Nubes: Mostly Cloudy
Visibilidad: 10 km
Detalle nubes: Partly Cloudy 610 m
Mostly Cloudy 914 m
2024/07/13 17:00 LEVC 131700Z 08010KT 050V120 9999 SCT020 BKN030 26/21 Q1011 NOSIG
 
LECH - Castellón-Vilanova, Castellón, ESP
Distancia desde Xert: S 37km
Actualizado: Sat, 13-Jul-2024 7:00pm CEST
Overcast
Overcast
 Viento desde ESE
Viento: ESE 15 km/h
Temperatura: 23°C
Punto Rocío: 20°C
Humedad: 83%
Barometro: 1013 hPa
Nubes: Overcast
Visibilidad: 9 km
Detalle nubes: Few Clouds 610 m
Overcast 945 m
2024/07/13 17:00 LECH 131700Z AUTO 11008KT 9000 FEW020 OVC031 23/20 Q1013
LERS - Reus, Tarragona, ESP
Distancia desde Xert: N 131km
Actualizado: Sat, 13-Jul-2024 7:00pm CEST
Few Clouds
Few Clouds
 Viento desde S
Viento: S 9 km/h
Temperatura: 25°C
Punto Rocío: 18°C
Humedad: 65%
Barometro: 1012 hPa
Nubes: Few Clouds
Visibilidad: 10 km
Detalle nubes: Few Clouds 914 m
2024/07/13 17:00 LERS 131700Z 17005KT 080V230 9999 FEW030 25/18 Q1012
 
LEBL - Josep Tarradelles-Barcelona, El Prat-Barcelona,ESP
Distancia desde Xert: NE 232km
Actualizado: Sat, 13-Jul-2024 7:00pm CEST
Few Clouds
Few Clouds
 Viento desde SSE
Viento: SSE 11 km/h
Temperatura: 24°C
Punto Rocío: 17°C
Humedad: 65%
Barometro: 1012 hPa
Nubes: Few Clouds
Visibilidad: 10 km
Detalle nubes: Few Clouds 914 m
2024/07/13 17:00 LEBL 131700Z 16006KT 120V190 9999 FEW030 24/17 Q1012 NOSIG
LEPA - Palma de Mallorca, Mallorca, ESP
Distancia desde Xert: E 400km
Actualizado: Sat, 13-Jul-2024 7:00pm CEST
Few Clouds
Few Clouds
 Viento desde WNW
Viento: WNW 19 km/h
Temperatura: 27°C
Humidex: 29°C
Punto Rocío: 22°C
Humedad: 74%
Barometro: 1011 hPa
Nubes: Few Clouds
Visibilidad: 10 km
Detalle nubes: Few Clouds 1524 m
2024/07/13 17:00 LEPA 131700Z 29010KT 260V320 9999 FEW050 27/22 Q1011 NOSIG
 
LEZG - Zaragoza, Zaragoza,ESP
Distancia desde Xert: NO 195km
Actualizado: Sat, 13-Jul-2024 7:00pm CEST
Clear
Clear
 Viento desde E
Viento: E 20 km/h
Temperatura: 30°C
Humidex: 31°C
Punto Rocío: 17°C
Humedad: 46%
Barometro: 1009 hPa
Estado del cielo: Clear
Visibilidad: mayor a 10 km
2024/07/13 17:00 LEZG 131700Z 10011KT 060V150 CAVOK 30/17 Q1009 NOSIG
LEMD - Adolfo Suárez Barajas, Madrid, ESP
Distancia desde Xert: O 490km
Actualizado: Sat, 13-Jul-2024 7:00pm CEST
Clear
Clear
 Viento desde WSW
Viento: WSW 20 km/h, Ráfaga: 43 km/h
Temperatura: 34°C
Punto Rocío: 3°C
Humedad: 14%
Barometro: 1009 hPa
Estado del cielo: Clear
Visibilidad: mayor a 10 km
2024/07/13 17:00 LEMD 131700Z 24011G23KT 190V290 CAVOK 34/03 Q1009 NOSIG
 
LEAB - Base aérea Los Llanos, Albacete, ESP
Distancia desde Xert: SO 300km
Actualizado: Sat, 13-Jul-2024 7:00pm CEST
Clear
Clear
 Viento desde S
Viento: S 19 km/h
Temperatura: 32°C
Punto Rocío: 16°C
Humedad: 38%
Barometro: 1011 hPa
Estado del cielo: Clear
Visibilidad: mayor a 10 km
2024/07/13 17:00 LEAB 131700Z 18010KT 140V220 CAVOK 32/16 Q1011 NOSIG
LEMI - Aeropuerto Murcia, Murcia, ESP
Distancia desde Xert: S 376km
Actualizado: Sat, 13-Jul-2024 7:00pm CEST
Partly Cloudy
Partly Cloudy
 Viento desde E
Viento: E 15 km/h
Temperatura: 28°C
Humidex: 29°C
Punto Rocío: 20°C
Humedad: 62%
Barometro: 1011 hPa
Nubes: Partly Cloudy
Visibilidad: 10 km
Detalle nubes: Partly Cloudy 762 m
2024/07/13 17:00 LEMI 131700Z 10008KT 070V170 9999 SCT025 28/20 Q1011

Guión de visualización Metar de Saratoga-Weather.org